Thursday, November 27, 2014, 9:43 AM CST
Back to Local

KHDC, Hammond, Hammond Municipal Airport

Location: Hammond, LA, United States Lat: 30.521
Local Time: 9:43 AM CST (15:43 GMT) Lon: -90.418
Time Zone: US/Central Elev: 42 ft

Show me the last for .
Show Coded

Time T Td Feel RH Dir Speed Gust Alt SLP Vis Weather Sky Remarks
2014-11-27 09:15 52 32 - 46 360° 14 17 30.48 - 10 CLR None
2014-11-27 08:55 52 34 - 50 360° 14 17 30.47 - 10 CLR None
2014-11-27 08:35 50 34 44 53 10° 10 16 30.46 - 10 CLR None
2014-11-27 08:15 48 36 44 61 10° 10 - 30.45 - 10 CLR None
2014-11-27 07:55 46 37 42 70 360° 9 - 30.45 - 10 CLR None
2014-11-27 07:35 45 39 42 81 360° 5 - 30.44 - 10 CLR None
2014-11-27 07:15 41 37 37 86 360° 6 - 30.44 - 10 CLR None
2014-11-27 06:55 41 37 39 86 350° 3 - 30.44 - 10 CLR None
2014-11-27 06:15 39 36 - 86 - Calm - 30.41 - 10 CLR None
2014-11-27 05:55 39 37 - 93 - Calm - 30.39 - 10 CLR None
2014-11-27 05:35 41 37 - 86 - Calm - 30.39 - 10 CLR None
2014-11-27 05:15 41 39 - 93 - Calm - 30.38 - 10 CLR None
2014-11-27 04:55 41 39 - 93 - Calm - 30.37 - 10 CLR None
2014-11-27 04:35 41 39 - 93 - Calm - 30.36 - 10 CLR None
2014-11-27 04:15 43 39 - 86 - Calm - 30.36 - 10 CLR None
2014-11-27 03:55 41 37 - 86 - Calm - 30.35 - 10 CLR None
2014-11-27 03:35 45 41 - 87 - Calm - 30.34 - 10 CLR None
2014-11-27 03:15 45 41 - 87 - Calm - 30.35 - 10 CLR None
2014-11-27 02:55 45 41 - 87 - Calm - 30.34 - 10 CLR None
2014-11-27 02:15 48 43 - 81 - Calm - 30.33 - 10 CLR None
2014-11-27 01:35 48 43 46 81 310° 5 - 30.31 - 10 CLR None
2014-11-27 01:15 48 43 47 81 270° 3 - 30.31 - 10 CLR None
2014-11-27 00:55 48 41 - 76 - Calm - 30.30 - 10 CLR None
2014-11-27 00:35 50 43 - 76 - Calm - 30.29 - 10 CLR None
2014-11-27 00:15 50 43 - 76 - Calm - 30.28 - 10 CLR None
2014-11-26 23:55 50 43 49 76 310° 3 - 30.28 - 10 CLR None
2014-11-26 23:35 52 43 - 71 280° 3 - 30.27 - 10 CLR None
2014-11-26 23:15 54 43 - 66 - Calm - 30.27 - 10 CLR None
2014-11-26 22:55 55 43 - 62 270° 6 - 30.27 - 10 CLR None
2014-11-26 22:35 55 43 - 62 280° 6 - 30.26 - 10 CLR None
2014-11-26 22:15 55 43 - 62 280° 6 - 30.26 - 10 CLR None
2014-11-26 21:35 57 41 - 54 270° 9 - 30.25 - 10 CLR None
2014-11-26 21:15 57 41 - 54 270° 8 - 30.24 - 10 CLR None
2014-11-26 20:55 57 41 - 54 260° 7 - 30.23 - 10 CLR None
2014-11-26 20:35 59 39 - 47 260° 7 - 30.23 - 10 CLR None
2014-11-26 20:15 59 39 - 47 250° 7 - 30.22 - 10 CLR None
2014-11-26 19:55 59 39 - 47 260° 7 - 30.22 - 10 CLR None
2014-11-26 19:35 59 39 - 47 260° 6 - 30.22 - 10 CLR None
2014-11-26 19:15 59 39 - 47 250° 6 - 30.21 - 10 CLR None
2014-11-26 18:55 61 39 - 44 250° 8 - 30.21 - 10 CLR None
2014-11-26 18:35 61 37 - 41 250° 7 - 30.21 - 10 CLR None
2014-11-26 18:15 61 36 - 38 240° 6 - 30.20 - 10 CLR None
2014-11-26 17:55 63 34 - 33 240° 7 - 30.18 - 10 CLR None
2014-11-26 17:35 63 32 - 31 240° 6 - 30.18 - 10 CLR None
2014-11-26 17:15 64 32 - 29 240° 6 - 30.17 - 10 CLR None
2014-11-26 16:55 66 32 - 27 240° 6 - 30.17 - 10 CLR None
2014-11-26 16:35 68 32 - 26 240° 8 - 30.17 - 10 CLR None
2014-11-26 16:15 68 34 - 28 270° 9 - 30.17 - 10 CLR None
2014-11-26 15:55 68 34 - 28 240° 9 - 30.17 - 10 CLR None
2014-11-26 15:35 70 34 - 26 230° 15 22 30.16 - 10 CLR None
2014-11-26 15:15 70 32 - 24 240° 15 20 30.16 - 10 CLR None
2014-11-26 14:55 70 32 - 24 240° 14 21 30.16 - 10 CLR None
2014-11-26 14:35 70 32 - 24 230° 12 21 30.16 - 10 CLR None
2014-11-26 14:15 70 32 - 24 260° 9 21 30.17 - 10 CLR None
2014-11-26 13:55 70 34 - 26 200° 10 17 30.18 - 10 CLR None
2014-11-26 13:35 68 32 - 26 200° 5 18 30.18 - 10 CLR None
2014-11-26 13:15 68 32 - 26 200° 10 17 30.19 - 10 CLR None
2014-11-26 12:55 66 32 - 27 190° 13 - 30.19 - 10 CLR None
2014-11-26 12:35 64 32 - 29 220° 5 - 30.21 - 10 CLR None
2014-11-26 12:15 64 32 - 29 220° 8 - 30.23 - 10 CLR None
2014-11-26 11:55 63 30 - 29 230° 8 - 30.23 - 10 CLR None
2014-11-26 11:35 63 30 - 29 230° 7 - 30.24 - 10 CLR None
2014-11-26 11:15 61 30 - 31 210° 7 - 30.25 - 10 CLR None
2014-11-26 10:55 61 34 - 36 190° 10 - 30.26 - 10 CLR None
2014-11-26 10:35 59 34 - 38 180° 6 - 30.27 - 10 CLR None
2014-11-26 10:15 57 36 - 44 190° 7 - 30.28 - 10 CLR None
2014-11-26 09:55 55 36 - 47 190° 3 - 30.29 - 10 CLR None

Support USWX by starting your Amazon purchase here.